Santa Terezinha, Brazil
Current Conditions -  °F | °C
As of 9:00 AM on Monday 22 Dec 2014 (Local Time) from SBKG Reporting Station
Broken Clouds Broken Clouds  
Wind Chill: 79°   Ceiling: 2300
Heat Index: 81°   Visibility: 6mi
Dew Point: 68°   Wind: 14mph
Humidity: 69%   Direction: 100°E
Pressure: 30"   Gusts: NA
Location:  7.38°S, 37.48°W
Report Text: SBKG 221200Z 10012KT 9999 BKN023 26/20 Q1016
Loading
Personal Weather Stations






























Interactive Weather Map New forecast layout! Learn more

10-Day Weather Forecast

Advertisements
Track Severe Weather on mobile